createdAt,value
2018-04-11T00:00:31.215Z,99780
2018-04-11T00:02:59.525Z,99777
2018-04-11T00:05:29.294Z,99787
2018-04-11T00:07:59.665Z,99785
2018-04-11T00:10:29.099Z,99789
2018-04-11T00:12:57.414Z,99779
2018-04-11T00:15:25.721Z,99777
2018-04-11T00:17:54.063Z,99776
2018-04-11T00:20:23.393Z,99781
2018-04-11T00:22:51.689Z,99785
2018-04-11T00:25:20.089Z,99787
2018-04-11T00:27:48.638Z,99788
2018-04-11T00:30:16.933Z,99787
2018-04-11T00:32:45.341Z,99789
2018-04-11T00:35:13.659Z,99779
2018-04-11T00:37:41.945Z,99780
2018-04-11T00:40:10.309Z,99786
2018-04-11T00:42:38.628Z,99783
2018-04-11T00:45:07.192Z,99785
2018-04-11T00:47:36.609Z,99791
2018-04-11T00:50:05.031Z,99789
2018-04-11T00:52:33.399Z,99785
2018-04-11T00:55:02.604Z,99788
2018-04-11T00:57:31.849Z,99789
2018-04-11T01:00:00.507Z,99797
2018-04-11T01:02:28.901Z,99801
2018-04-11T01:04:57.281Z,99799
2018-04-11T01:07:25.680Z,99794
2018-04-11T01:09:55.681Z,99789
2018-04-11T01:12:24.048Z,99791
2018-04-11T01:14:52.471Z,99803
2018-04-11T01:17:20.855Z,99810
2018-04-11T01:19:49.360Z,99813
2018-04-11T01:22:18.524Z,99804
2018-04-11T01:24:47.113Z,99799
2018-04-11T01:27:15.565Z,99806
2018-04-11T01:29:43.907Z,99809
2018-04-11T01:32:12.219Z,99798
2018-04-11T01:34:40.602Z,99799
2018-04-11T01:37:10.545Z,99799
2018-04-11T01:39:39.056Z,99791
2018-04-11T01:42:07.724Z,99789
2018-04-11T01:44:36.844Z,99791
2018-04-11T01:47:05.229Z,99787
2018-04-11T01:49:33.799Z,99786
2018-04-11T01:52:02.970Z,99782
2018-04-11T01:54:31.295Z,99779
2018-04-11T01:56:59.641Z,99783
2018-04-11T01:59:28.790Z,99783
2018-04-11T02:01:57.221Z,99782
2018-04-11T02:04:26.436Z,99786
2018-04-11T02:06:54.716Z,99788
2018-04-11T02:09:23.003Z,99788
2018-04-11T02:11:52.309Z,99782
2018-04-11T02:14:22.818Z,99786
2018-04-11T02:16:51.140Z,99781
2018-04-11T02:19:19.502Z,99786
2018-04-11T02:21:47.840Z,99789
2018-04-11T02:24:16.138Z,99789
2018-04-11T02:26:44.599Z,99789
2018-04-11T02:29:13.118Z,99785
2018-04-11T02:31:41.662Z,99778
2018-04-11T02:34:10.052Z,99776
2018-04-11T02:36:38.614Z,99775
2018-04-11T02:39:07.893Z,99773
2018-04-11T02:41:36.366Z,99774
2018-04-11T02:44:05.684Z,99778
2018-04-11T02:46:35.882Z,99777
2018-04-11T02:49:04.160Z,99773
2018-04-11T02:51:32.472Z,99769
2018-04-11T02:54:01.540Z,99766
2018-04-11T02:56:30.003Z,99753
2018-04-11T02:58:58.293Z,99761
2018-04-11T03:01:26.603Z,99773
2018-04-11T03:03:55.082Z,99773
2018-04-11T03:06:23.552Z,99770
2018-04-11T03:08:52.141Z,99765
2018-04-11T03:11:21.261Z,99760
2018-04-11T03:13:49.693Z,99761
2018-04-11T03:16:18.006Z,99759
2018-04-11T03:18:46.389Z,99761
2018-04-11T03:21:14.857Z,99764
2018-04-11T03:23:43.950Z,99760
2018-04-11T03:26:13.147Z,99762
2018-04-11T03:28:42.451Z,99762
2018-04-11T03:31:11.040Z,99762
2018-04-11T03:33:39.386Z,99767
2018-04-11T03:36:07.817Z,99766
2018-04-11T03:38:36.129Z,99766
2018-04-11T03:41:05.196Z,99767
2018-04-11T03:43:33.446Z,99773
2018-04-11T03:46:01.827Z,99780
2018-04-11T03:48:31.878Z,99789
2018-04-11T03:51:02.840Z,99795
2018-04-11T03:53:33.960Z,99785
2018-04-11T03:56:02.286Z,99788
2018-04-11T03:58:31.537Z,99781
2018-04-11T04:00:59.961Z,99772
2018-04-11T04:03:29.061Z,99769
2018-04-11T04:05:58.135Z,99778
2018-04-11T04:08:27.410Z,99793
2018-04-11T04:10:55.734Z,99806
2018-04-11T04:13:42.813Z,99812
2018-04-11T04:16:28.809Z,99817
2018-04-11T04:19:15.066Z,99813
2018-04-11T04:21:43.389Z,99813
2018-04-11T04:24:11.704Z,99814
2018-04-11T04:26:40.088Z,99826
2018-04-11T04:29:08.562Z,99823
2018-04-11T04:31:37.162Z,99823
2018-04-11T04:34:05.430Z,99825
2018-04-11T04:36:33.796Z,99830
2018-04-11T04:39:02.135Z,99833
2018-04-11T04:41:30.451Z,99834
2018-04-11T04:43:58.765Z,99835
2018-04-11T04:46:27.101Z,99839
2018-04-11T04:48:56.460Z,99841
2018-04-11T04:51:24.976Z,99841
2018-04-11T04:53:53.364Z,99836
2018-04-11T04:56:21.895Z,99839
2018-04-11T04:58:50.231Z,99838
2018-04-11T05:01:18.758Z,99836
2018-04-11T05:03:47.522Z,99838
2018-04-11T05:06:15.853Z,99844
2018-04-11T05:08:44.965Z,99842
2018-04-11T05:11:14.131Z,99841
2018-04-11T05:13:42.441Z,99843
2018-04-11T05:16:11.561Z,99851
2018-04-11T05:18:39.819Z,99853
2018-04-11T05:21:09.409Z,99856
2018-04-11T05:23:38.457Z,99857
2018-04-11T05:26:06.743Z,99859
2018-04-11T05:28:35.079Z,99867
2018-04-11T05:31:03.478Z,99861
2018-04-11T05:33:31.783Z,99855
2018-04-11T05:36:00.385Z,99857
2018-04-11T05:38:28.954Z,99846
2018-04-11T05:40:57.490Z,99852
2018-04-11T05:43:26.246Z,99854
2018-04-11T05:45:55.349Z,99863
2018-04-11T05:48:24.554Z,99858
2018-04-11T05:50:52.909Z,99872
2018-04-11T05:53:21.245Z,99877
2018-04-11T05:55:49.619Z,99878
2018-04-11T05:58:18.365Z,99883
2018-04-11T06:00:47.974Z,99878
2018-04-11T06:03:17.077Z,99887
2018-04-11T06:05:45.387Z,99888
2018-04-11T06:08:13.747Z,99889
2018-04-11T06:10:42.152Z,99889
2018-04-11T06:13:10.467Z,99888
2018-04-11T06:15:39.698Z,99892
2018-04-11T06:18:08.239Z,99892
2018-04-11T06:20:37.499Z,99891
2018-04-11T06:23:05.914Z,99891
2018-04-11T06:25:34.251Z,99894
2018-04-11T06:28:02.686Z,99893
2018-04-11T06:30:31.027Z,99887
2018-04-11T06:32:59.343Z,99887
2018-04-11T06:35:28.593Z,99883
2018-04-11T06:37:57.212Z,99879
2018-04-11T06:40:25.724Z,99876
2018-04-11T06:42:55.604Z,99869
2018-04-11T06:45:24.176Z,99869
2018-04-11T06:47:52.492Z,99875
2018-04-11T06:50:21.568Z,99879
2018-04-11T06:52:49.913Z,99880
2018-04-11T06:55:18.359Z,99863
2018-04-11T06:57:46.789Z,99882
2018-04-11T07:00:15.851Z,99881
2018-04-11T07:02:44.396Z,99882
2018-04-11T07:05:14.641Z,99886
2018-04-11T07:07:42.957Z,99883
2018-04-11T07:10:11.287Z,99885
2018-04-11T07:12:39.637Z,99887
2018-04-11T07:15:07.963Z,99892
2018-04-11T07:17:36.982Z,99888
2018-04-11T07:20:05.277Z,99893
2018-04-11T07:22:33.643Z,99889
2018-04-11T07:25:01.952Z,99885
2018-04-11T07:27:30.342Z,99887
2018-04-11T07:29:58.948Z,99885
2018-04-11T07:32:27.936Z,99885
2018-04-11T07:34:57.233Z,99884
2018-04-11T07:37:25.527Z,99885
2018-04-11T07:39:54.038Z,99890
2018-04-11T07:42:22.450Z,99890
2018-04-11T07:44:50.759Z,99888
2018-04-11T07:47:19.138Z,99893
2018-04-11T07:49:47.533Z,99895
2018-04-11T07:52:15.831Z,99897
2018-04-11T07:54:44.189Z,99905
2018-04-11T07:57:12.558Z,99910
2018-04-11T07:59:40.962Z,99908
2018-04-11T08:02:09.504Z,99914
2018-04-11T08:04:39.228Z,99911
2018-04-11T08:07:07.948Z,99909
2018-04-11T08:09:36.271Z,99909
2018-04-11T08:12:04.668Z,99904
2018-04-11T08:14:33.121Z,99913
2018-04-11T08:17:01.470Z,99910
2018-04-11T08:19:30.013Z,99908
2018-04-11T08:21:58.298Z,99912
2018-04-11T08:24:26.598Z,99916
2018-04-11T08:26:55.812Z,99908
2018-04-11T08:29:24.894Z,99909
2018-04-11T08:31:53.284Z,99913
2018-04-11T08:34:22.368Z,99914
2018-04-11T08:36:52.452Z,99920
2018-04-11T08:39:20.833Z,99924
2018-04-11T08:41:49.186Z,99919
2018-04-11T08:44:17.504Z,99918
2018-04-11T08:46:45.952Z,99919
2018-04-11T08:49:14.283Z,99917
2018-04-11T08:51:42.563Z,99920
2018-04-11T08:54:12.044Z,99917
2018-04-11T08:56:41.309Z,99922
2018-04-11T08:59:09.657Z,99913
2018-04-11T09:01:38.935Z,99920
2018-04-11T09:04:07.338Z,99924
2018-04-11T09:06:35.823Z,99920
2018-04-11T09:09:05.857Z,99920
2018-04-11T09:11:34.258Z,99913
2018-04-11T09:14:02.541Z,99917
2018-04-11T09:16:31.134Z,99917
2018-04-11T09:18:59.522Z,99914
2018-04-11T09:21:28.173Z,99912
2018-04-11T09:23:56.554Z,99911
2018-04-11T09:26:25.176Z,99916
2018-04-11T09:28:53.483Z,99914
2018-04-11T09:31:21.942Z,99915
2018-04-11T09:33:51.013Z,99912
2018-04-11T09:36:19.329Z,99910
2018-04-11T09:38:48.509Z,99908
2018-04-11T09:41:18.373Z,99904
2018-04-11T09:43:46.869Z,99891
2018-04-11T09:46:15.175Z,99895
2018-04-11T09:48:43.500Z,99885
2018-04-11T09:51:11.828Z,99896
2018-04-11T09:53:40.094Z,99895
2018-04-11T09:56:08.675Z,99892
2018-04-11T09:58:37.204Z,99889
2018-04-11T10:01:05.540Z,99877
2018-04-11T10:03:33.981Z,99900
2018-04-11T10:06:02.270Z,99902
2018-04-11T10:08:30.604Z,99901
2018-04-11T10:11:00.745Z,99900
2018-04-11T10:13:29.200Z,99899
2018-04-11T10:15:58.328Z,99899
2018-04-11T10:18:26.712Z,99900
2018-04-11T10:20:55.225Z,99902
2018-04-11T10:23:23.769Z,99900
2018-04-11T10:25:52.043Z,99895
2018-04-11T10:28:20.406Z,99895
2018-04-11T10:30:48.875Z,99890
2018-04-11T10:33:18.189Z,99890
2018-04-11T10:35:46.694Z,99889
2018-04-11T10:38:15.147Z,99888
2018-04-11T10:40:43.481Z,99880
2018-04-11T10:43:13.144Z,99880
2018-04-11T10:45:41.683Z,99878
2018-04-11T10:48:09.959Z,99879
2018-04-11T10:50:38.504Z,99877
2018-04-11T10:53:06.928Z,99877
2018-04-11T10:55:35.324Z,99878
2018-04-11T10:58:04.909Z,99881
2018-04-11T11:00:33.353Z,99877
2018-04-11T11:03:01.671Z,99878
2018-04-11T11:05:30.800Z,99878
2018-04-11T11:07:59.085Z,99872
2018-04-11T11:10:27.418Z,99858
2018-04-11T11:12:55.793Z,99870
2018-04-11T11:15:24.108Z,99867
2018-04-11T11:17:52.741Z,99867
2018-04-11T11:20:21.184Z,99865
2018-04-11T11:22:49.520Z,99870
2018-04-11T11:25:17.789Z,99870
2018-04-11T11:27:47.031Z,99868
2018-04-11T11:30:15.350Z,99868
2018-04-11T11:32:43.670Z,99866
2018-04-11T11:35:12.097Z,99868
2018-04-11T11:37:40.634Z,99867
2018-04-11T11:40:10.354Z,99870
2018-04-11T11:42:39.093Z,99864
2018-04-11T11:45:07.421Z,99865
2018-04-11T11:47:35.789Z,99864
2018-04-11T11:50:04.101Z,99865
2018-04-11T11:52:32.436Z,99863
2018-04-11T11:55:01.576Z,99858
2018-04-11T11:57:30.012Z,99855
2018-04-11T11:59:58.773Z,99843
2018-04-11T12:02:27.503Z,99847
2018-04-11T12:04:55.950Z,99850
2018-04-11T12:07:25.384Z,99846
2018-04-11T12:09:53.742Z,99842
2018-04-11T12:12:22.570Z,99839
2018-04-11T12:14:51.262Z,99839
2018-04-11T12:17:19.729Z,99836
2018-04-11T12:19:48.044Z,99833
2018-04-11T12:22:16.551Z,99829
2018-04-11T12:24:45.991Z,99832
2018-04-11T12:27:14.530Z,99829
2018-04-11T12:29:43.718Z,99831
2018-04-11T12:32:12.044Z,99827
2018-04-11T12:34:40.641Z,99828
2018-04-11T12:37:09.254Z,99827
2018-04-11T12:39:37.726Z,99829
2018-04-11T12:42:07.661Z,99824
2018-04-11T12:44:36.923Z,99826
2018-04-11T12:47:06.419Z,99821
2018-04-11T12:49:35.037Z,99822
2018-04-11T12:52:03.567Z,99826
2018-04-11T12:54:32.014Z,99832
2018-04-11T12:57:00.361Z,99841
2018-04-11T12:59:28.696Z,99835
2018-04-11T13:01:57.196Z,99828
2018-04-11T13:04:25.703Z,99823
2018-04-11T13:06:55.186Z,99822
2018-04-11T13:09:23.554Z,99817
2018-04-11T13:11:51.909Z,99823
2018-04-11T13:14:20.991Z,99815
2018-04-11T13:16:50.229Z,99814
2018-04-11T13:19:20.104Z,99809
2018-04-11T13:21:50.441Z,99806
2018-04-11T13:24:19.824Z,99798
2018-04-11T13:26:49.033Z,99801
2018-04-11T13:29:18.141Z,99800
2018-04-11T13:31:46.631Z,99801
2018-04-11T13:34:14.996Z,99804
2018-04-11T13:36:43.525Z,99795
2018-04-11T13:39:12.845Z,99791
2018-04-11T13:41:41.390Z,99790
2018-04-11T13:44:09.758Z,99792
2018-04-11T13:46:38.108Z,99792
2018-04-11T13:49:07.222Z,99794
2018-04-11T13:51:36.433Z,99790
2018-04-11T13:54:04.811Z,99789
2018-04-11T13:56:35.084Z,99791
2018-04-11T13:59:04.207Z,99791
2018-04-11T14:01:33.345Z,99785
2018-04-11T14:04:01.925Z,99791
2018-04-11T14:06:30.532Z,99792
2018-04-11T14:08:59.727Z,99787
2018-04-11T14:11:28.112Z,99788
2018-04-11T14:13:56.413Z,99787
2018-04-11T14:16:25.760Z,99792
2018-04-11T14:18:54.062Z,99788
2018-04-11T14:21:22.477Z,99788
2018-04-11T14:23:52.072Z,99791
2018-04-11T14:26:21.418Z,99786
2018-04-11T14:28:49.891Z,99791
2018-04-11T14:31:19.428Z,99795
2018-04-11T14:33:47.900Z,99795
2018-04-11T14:36:16.324Z,99799
2018-04-11T14:38:45.515Z,99800
2018-04-11T14:41:13.930Z,99793
2018-04-11T14:43:42.217Z,99805
2018-04-11T14:46:10.602Z,99801
2018-04-11T14:48:39.064Z,99814
2018-04-11T14:51:07.716Z,99825
2018-04-11T14:53:36.866Z,99824
2018-04-11T14:56:05.205Z,99819
2018-04-11T14:58:35.260Z,99822
2018-04-11T15:01:05.260Z,99818
2018-04-11T15:03:35.227Z,99817
2018-04-11T15:06:05.196Z,99816
2018-04-11T15:08:34.829Z,99817
2018-04-11T15:11:03.377Z,99811
2018-04-11T15:13:31.761Z,99810
2018-04-11T15:16:00.100Z,99813
2018-04-11T15:18:28.604Z,99811
2018-04-11T15:20:57.115Z,99813
2018-04-11T15:23:25.701Z,99811
2018-04-11T15:25:54.037Z,99818
2018-04-11T15:28:26.357Z,99817
2018-04-11T15:30:54.780Z,99821
2018-04-11T15:33:24.029Z,99813
2018-04-11T15:35:52.594Z,99813
2018-04-11T15:38:21.021Z,99813
2018-04-11T15:40:49.480Z,99808
2018-04-11T15:43:17.991Z,99806
2018-04-11T15:45:46.637Z,99804
2018-04-11T15:48:15.007Z,99801
2018-04-11T15:50:43.441Z,99799
2018-04-11T15:53:12.946Z,99802
2018-04-11T15:55:42.057Z,99808
2018-04-11T15:58:11.185Z,99809
2018-04-11T16:00:39.561Z,99811
2018-04-11T16:03:07.966Z,99818
2018-04-11T16:05:36.368Z,99817
2018-04-11T16:08:04.886Z,99817
2018-04-11T16:10:33.273Z,99811
2018-04-11T16:13:01.646Z,99811
2018-04-11T16:15:30.137Z,99818
2018-04-11T16:17:58.563Z,99807
2018-04-11T16:20:27.791Z,99804
2018-04-11T16:22:56.280Z,99804
2018-04-11T16:25:24.636Z,99810
2018-04-11T16:27:53.713Z,99812
2018-04-11T16:30:22.081Z,99806
2018-04-11T16:32:50.452Z,99802
2018-04-11T16:35:18.861Z,99802
2018-04-11T16:37:47.994Z,99803
2018-04-11T16:40:16.904Z,99807
2018-04-11T16:42:45.276Z,99806
2018-04-11T16:45:13.862Z,99799
2018-04-11T16:47:42.417Z,99806
2018-04-11T16:50:10.930Z,99805
2018-04-11T16:52:40.871Z,99797
2018-04-11T16:55:09.221Z,99793
2018-04-11T16:57:38.011Z,99801
2018-04-11T17:00:06.388Z,99805
2018-04-11T17:02:34.960Z,99803
2018-04-11T17:05:03.268Z,99808
2018-04-11T17:07:31.736Z,99802
2018-04-11T17:10:00.046Z,99805
2018-04-11T17:12:28.465Z,99810
2018-04-11T17:14:56.930Z,99807
2018-04-11T17:17:26.300Z,99812
2018-04-11T17:19:54.851Z,99812
2018-04-11T17:22:41.225Z,99807
2018-04-11T17:25:27.436Z,99811
2018-04-11T17:28:14.052Z,99810
2018-04-11T17:34:04.264Z,99802
2018-04-11T17:36:32.643Z,99804
2018-04-11T17:39:01.225Z,99800
2018-04-11T17:41:30.809Z,99803
2018-04-11T17:43:59.172Z,99801
2018-04-11T17:46:27.661Z,99806
2018-04-11T17:48:56.162Z,99800
2018-04-11T17:51:24.776Z,99799
2018-04-11T17:53:53.384Z,99793
2018-04-11T17:56:21.815Z,99795
2018-04-11T17:58:50.429Z,99801
2018-04-11T18:01:18.778Z,99797
2018-04-11T18:03:47.235Z,99799
2018-04-11T18:06:15.607Z,99802
2018-04-11T18:08:44.809Z,99802
2018-04-11T18:11:13.312Z,99808
2018-04-11T18:13:41.776Z,99806
2018-04-11T18:16:10.263Z,99804
2018-04-11T18:18:38.686Z,99801
2018-04-11T18:21:07.117Z,99805
2018-04-11T18:23:35.474Z,99813
2018-04-11T18:26:04.696Z,99815
2018-04-11T18:28:33.258Z,99812
2018-04-11T18:31:02.492Z,99812
2018-04-11T18:33:30.872Z,99813
2018-04-11T18:35:59.228Z,99806
2018-04-11T18:38:27.933Z,99801
2018-04-11T18:40:56.367Z,99797
2018-04-11T18:43:26.612Z,99795
2018-04-11T18:45:54.970Z,99799
2018-04-11T18:48:24.203Z,99795
2018-04-11T18:50:52.592Z,99798
2018-04-11T18:53:21.088Z,99800
2018-04-11T18:55:49.662Z,99798
2018-04-11T18:58:18.252Z,99810
2018-04-11T19:00:46.859Z,99810
2018-04-11T19:03:15.300Z,99807
2018-04-11T19:05:43.856Z,99817
2018-04-11T19:08:13.104Z,99818
2018-04-11T19:10:42.393Z,99818
2018-04-11T19:13:10.926Z,99824
2018-04-11T19:15:40.123Z,99829
2018-04-11T19:18:09.312Z,99822
2018-04-11T19:20:37.839Z,99819
2018-04-11T19:23:06.245Z,99822
2018-04-11T19:25:34.657Z,99823
2018-04-11T19:28:03.997Z,99827
2018-04-11T19:30:32.616Z,99826
2018-04-11T19:33:01.453Z,99823
2018-04-11T19:35:30.013Z,99826
2018-04-11T19:37:58.517Z,99828
2018-04-11T19:40:28.925Z,99821
2018-04-11T19:42:58.493Z,99822
2018-04-11T19:45:27.158Z,99822
2018-04-11T19:47:55.770Z,99822
2018-04-11T19:50:24.253Z,99829
2018-04-11T19:52:52.707Z,99823
2018-04-11T19:55:21.071Z,99820
2018-04-11T19:57:49.505Z,99823
2018-04-11T20:00:17.860Z,99824
2018-04-11T20:02:46.139Z,99825
2018-04-11T20:05:14.687Z,99827
2018-04-11T20:07:43.072Z,99825
2018-04-11T20:10:11.418Z,99826
2018-04-11T20:12:41.825Z,99828
2018-04-11T20:15:10.359Z,99826
2018-04-11T20:17:38.760Z,99831
2018-04-11T20:20:07.132Z,99829
2018-04-11T20:22:35.589Z,99826
2018-04-11T20:25:04.045Z,99826
2018-04-11T20:27:33.396Z,99827
2018-04-11T20:30:01.751Z,99825
2018-04-11T20:32:30.455Z,99825
2018-04-11T20:34:58.787Z,99824
2018-04-11T20:37:28.123Z,99824
2018-04-11T20:39:56.547Z,99819
2018-04-11T20:42:24.886Z,99821
2018-04-11T20:44:53.418Z,99818
2018-04-11T20:47:21.831Z,99824
2018-04-11T20:49:50.401Z,99813
2018-04-11T20:52:18.752Z,99819
2018-04-11T20:54:47.087Z,99817
2018-04-11T20:57:15.462Z,99812
2018-04-11T20:59:43.844Z,99809
2018-04-11T21:02:13.615Z,99802
2018-04-11T21:04:42.223Z,99803
2018-04-11T21:07:10.726Z,99798
2018-04-11T21:09:39.047Z,99797
2018-04-11T21:12:07.674Z,99791
2018-04-11T21:14:37.177Z,99783
2018-04-11T21:17:05.530Z,99788
2018-04-11T21:19:34.668Z,99783
2018-04-11T21:22:03.043Z,99784
2018-04-11T21:24:31.809Z,99781
2018-04-11T21:27:00.137Z,99774
2018-04-11T21:29:30.283Z,99775
2018-04-11T21:31:58.707Z,99775
2018-04-11T21:34:27.032Z,99779
2018-04-11T21:36:56.152Z,99768
2018-04-11T21:39:24.513Z,99771
2018-04-11T21:41:53.553Z,99766
2018-04-11T21:44:22.071Z,99768
2018-04-11T21:46:50.381Z,99762
2018-04-11T21:49:18.769Z,99764
2018-04-11T21:51:47.359Z,99764
2018-04-11T21:54:15.824Z,99737
2018-04-11T21:56:44.188Z,99764
2018-04-11T21:59:13.277Z,99762
2018-04-11T22:01:42.487Z,99758
2018-04-11T22:04:10.798Z,99762
2018-04-11T22:06:39.109Z,99758
2018-04-11T22:09:07.522Z,99754
2018-04-11T22:11:36.667Z,99758
2018-04-11T22:14:04.959Z,99751
2018-04-11T22:16:34.102Z,99751
2018-04-11T22:19:04.089Z,99745
2018-04-11T22:21:34.317Z,99744
2018-04-11T22:24:03.398Z,99744
2018-04-11T22:26:31.762Z,99740
2018-04-11T22:29:00.117Z,99745
2018-04-11T22:31:28.491Z,99742
2018-04-11T22:33:56.912Z,99738
2018-04-11T22:36:26.001Z,99728
2018-04-11T22:38:54.397Z,99720
2018-04-11T22:41:23.511Z,99722
2018-04-11T22:43:52.590Z,99716
2018-04-11T22:46:21.884Z,99721
2018-04-11T22:48:50.957Z,99718
2018-04-11T22:51:19.333Z,99725
2018-04-11T22:53:47.678Z,99722
2018-04-11T22:56:15.995Z,99730
2018-04-11T22:58:44.564Z,99730
2018-04-11T23:01:13.014Z,99728
2018-04-11T23:03:41.352Z,99729
2018-04-11T23:06:09.859Z,99728
2018-04-11T23:08:38.268Z,99720
2018-04-11T23:11:06.716Z,99720
2018-04-11T23:13:35.197Z,99725
2018-04-11T23:16:03.551Z,99723
2018-04-11T23:18:31.834Z,99730
2018-04-11T23:21:01.345Z,99723
2018-04-11T23:23:30.433Z,99727
2018-04-11T23:26:00.687Z,99725
2018-04-11T23:28:29.317Z,99723
2018-04-11T23:30:57.819Z,99721
2018-04-11T23:33:26.948Z,99721
2018-04-11T23:35:55.303Z,99721
2018-04-11T23:38:24.593Z,99716
2018-04-11T23:40:54.523Z,99716
2018-04-11T23:43:22.999Z,99716
2018-04-11T23:45:51.323Z,99715
2018-04-11T23:48:19.641Z,99718
2018-04-11T23:50:47.962Z,99717
2018-04-11T23:53:16.271Z,99708
2018-04-11T23:55:44.634Z,99709
2018-04-11T23:58:13.232Z,99705
